ASL765 LYBE-UUEE
Flight info
| Callsign | ASL765 |
|---|---|
| Flight time | N/A |
| Altitude | 40000 |
| Route | TISAK M173 PARAK/N0460F350 DCT KOVEK/N0459F360 DCT PITOK DCT KELEL/N0457F370 DCT LOGDA M866 GERVI M857 BOKSU DCT LAUGA DCT IGORO/K0846F370 M864 DIPOP DIPOP3E |
| Aircraft | A319/M-SDE3FGHIRWY/LB1 |
Departure
| Time | N/A |
|---|---|
| Airport | Belgrade Nikola Tesla Airport (LYBE) |
Arrival
| Time | 2026-04-30 22:17 |
|---|---|
| Airport | Sheremetyevo International Airport (UUEE) |
| Time | Latitude | Longitude | Altitude | Speed | Heading |
|---|---|---|---|---|---|
| 2026-04-30 19:59 | 49.31281 | 20.17811 | 38399 ft | 416 kts | 4° |
| 2026-04-30 20:00 | 49.34154 | 20.18223 | 38398 ft | 413 kts | 11° |
| 2026-04-30 20:00 | 49.39824 | 20.19675 | 38400 ft | 413 kts | 11° |
| 2026-04-30 20:01 | 49.48343 | 20.21849 | 38395 ft | 413 kts | 12° |
| 2026-04-30 20:01 | 49.53799 | 20.24473 | 38397 ft | 411 kts | 20° |
| 2026-04-30 20:02 | 49.61921 | 20.28747 | 38395 ft | 411 kts | 20° |
| 2026-04-30 20:03 | 49.70002 | 20.33045 | 38393 ft | 411 kts | 20° |
| 2026-04-30 20:03 | 49.75413 | 20.35913 | 38389 ft | 411 kts | 20° |
| 2026-04-30 20:04 | 49.80821 | 20.38792 | 38395 ft | 411 kts | 20° |
| 2026-04-30 20:05 | 49.88913 | 20.43130 | 38398 ft | 410 kts | 20° |
| 2026-04-30 20:05 | 49.96991 | 20.47468 | 38388 ft | 409 kts | 20° |
| 2026-04-30 20:06 | 50.02369 | 20.50357 | 38391 ft | 409 kts | 20° |
| 2026-04-30 20:06 | 50.07713 | 20.53239 | 38394 ft | 408 kts | 20° |
| 2026-04-30 20:07 | 50.13079 | 20.56137 | 38393 ft | 408 kts | 20° |
| 2026-04-30 20:08 | 50.21111 | 20.60495 | 38393 ft | 407 kts | 20° |
| 2026-04-30 20:08 | 50.26459 | 20.63401 | 38398 ft | 406 kts | 20° |
| 2026-04-30 20:09 | 50.31792 | 20.66317 | 38399 ft | 405 kts | 20° |
| 2026-04-30 20:09 | 50.39776 | 20.70684 | 38396 ft | 404 kts | 20° |
| 2026-04-30 20:10 | 50.47739 | 20.75047 | 38399 ft | 404 kts | 20° |
| 2026-04-30 20:11 | 50.55676 | 20.79434 | 38400 ft | 403 kts | 20° |
| 2026-04-30 20:11 | 50.60968 | 20.82367 | 38394 ft | 403 kts | 20° |
| 2026-04-30 20:12 | 50.68866 | 20.86729 | 38398 ft | 402 kts | 20° |
| 2026-04-30 20:13 | 50.74145 | 20.89651 | 38396 ft | 402 kts | 20° |
| 2026-04-30 20:13 | 50.79416 | 20.92580 | 38398 ft | 402 kts | 20° |
| 2026-04-30 20:14 | 50.84685 | 20.95528 | 38397 ft | 401 kts | 20° |
| 2026-04-30 20:14 | 50.89947 | 20.98483 | 38402 ft | 401 kts | 21° |
| 2026-04-30 20:15 | 50.95202 | 21.01428 | 38401 ft | 400 kts | 20° |
| 2026-04-30 20:15 | 51.00455 | 21.04383 | 38399 ft | 400 kts | 21° |
| 2026-04-30 20:16 | 51.05712 | 21.07350 | 38397 ft | 400 kts | 21° |
| 2026-04-30 20:16 | 51.10917 | 21.10298 | 38403 ft | 400 kts | 21° |
| 2026-04-30 20:17 | 51.16150 | 21.13271 | 38406 ft | 399 kts | 21° |
| 2026-04-30 20:17 | 51.21389 | 21.16241 | 38401 ft | 399 kts | 21° |
| 2026-04-30 20:18 | 51.26621 | 21.19214 | 38396 ft | 399 kts | 21° |
| 2026-04-30 20:18 | 51.31847 | 21.22202 | 38389 ft | 399 kts | 21° |
| 2026-04-30 20:19 | 51.37065 | 21.25184 | 38391 ft | 398 kts | 21° |
| 2026-04-30 20:19 | 51.42286 | 21.28178 | 38392 ft | 398 kts | 21° |
| 2026-04-30 20:20 | 51.47490 | 21.31172 | 38395 ft | 397 kts | 21° |
| 2026-04-30 20:20 | 51.52694 | 21.34167 | 38389 ft | 397 kts | 21° |
| 2026-04-30 20:21 | 51.57888 | 21.37167 | 38385 ft | 397 kts | 21° |
| 2026-04-30 20:21 | 51.63083 | 21.40170 | 38383 ft | 397 kts | 21° |
| 2026-04-30 20:22 | 51.68240 | 21.43158 | 38381 ft | 397 kts | 21° |
| 2026-04-30 20:22 | 51.73432 | 21.46179 | 38382 ft | 397 kts | 21° |
| 2026-04-30 20:23 | 51.78630 | 21.49218 | 38387 ft | 397 kts | 21° |
| 2026-04-30 20:23 | 51.83822 | 21.52262 | 38389 ft | 397 kts | 21° |
| 2026-04-30 20:24 | 51.89014 | 21.55306 | 38388 ft | 397 kts | 21° |
| 2026-04-30 20:24 | 51.94214 | 21.58357 | 38390 ft | 397 kts | 21° |
| 2026-04-30 20:25 | 52.02006 | 21.62948 | 38392 ft | 397 kts | 21° |
| 2026-04-30 20:26 | 52.09758 | 21.67535 | 38392 ft | 397 kts | 21° |
| 2026-04-30 20:26 | 52.17548 | 21.72171 | 38392 ft | 397 kts | 21° |
| 2026-04-30 20:27 | 52.27922 | 21.78349 | 38389 ft | 396 kts | 21° |
| 2026-04-30 20:28 | 52.38223 | 21.84525 | 38388 ft | 395 kts | 21° |
| 2026-04-30 20:30 | 52.51081 | 21.92275 | 38383 ft | 392 kts | 21° |
| 2026-04-30 20:31 | 52.66381 | 22.01569 | 38388 ft | 391 kts | 21° |
| 2026-04-30 20:32 | 52.79123 | 22.09352 | 38384 ft | 390 kts | 21° |
| 2026-04-30 20:33 | 52.86765 | 22.14039 | 38382 ft | 390 kts | 21° |
| 2026-04-30 20:34 | 52.93538 | 22.18208 | 38381 ft | 390 kts | 21° |
| 2026-04-30 20:35 | 53.01984 | 22.23431 | 38374 ft | 389 kts | 21° |
| 2026-04-30 20:35 | 53.08777 | 22.27647 | 38369 ft | 389 kts | 21° |
| 2026-04-30 20:36 | 53.13851 | 22.30815 | 38371 ft | 389 kts | 21° |
| 2026-04-30 20:37 | 53.21456 | 22.35579 | 38373 ft | 389 kts | 21° |
| 2026-04-30 20:37 | 53.26526 | 22.38753 | 38373 ft | 389 kts | 21° |
| 2026-04-30 20:38 | 53.31590 | 22.41938 | 38368 ft | 389 kts | 21° |
| 2026-04-30 20:38 | 53.36623 | 22.45099 | 38367 ft | 389 kts | 21° |
| 2026-04-30 20:39 | 53.44217 | 22.49894 | 38369 ft | 389 kts | 21° |
| 2026-04-30 20:40 | 53.51822 | 22.54732 | 38368 ft | 389 kts | 21° |
| 2026-04-30 20:40 | 53.56891 | 22.57957 | 38367 ft | 389 kts | 21° |
| 2026-04-30 20:41 | 53.64481 | 22.62797 | 38367 ft | 389 kts | 21° |
| 2026-04-30 20:41 | 53.69542 | 22.66038 | 38367 ft | 389 kts | 21° |
| 2026-04-30 20:42 | 53.74604 | 22.69288 | 38365 ft | 389 kts | 21° |
| 2026-04-30 20:43 | 53.82196 | 22.74191 | 38370 ft | 389 kts | 22° |
| 2026-04-30 20:43 | 53.87252 | 22.77466 | 38368 ft | 389 kts | 21° |
| 2026-04-30 20:44 | 53.94842 | 22.82371 | 38364 ft | 389 kts | 21° |
| 2026-04-30 20:45 | 54.04920 | 22.88928 | 38366 ft | 389 kts | 22° |
| 2026-04-30 20:45 | 54.09981 | 22.92228 | 38371 ft | 389 kts | 21° |
| 2026-04-30 20:46 | 54.20072 | 22.98866 | 38364 ft | 388 kts | 22° |
| 2026-04-30 20:47 | 54.27614 | 23.03859 | 38362 ft | 387 kts | 22° |
| 2026-04-30 20:48 | 54.32243 | 23.08504 | 38358 ft | 388 kts | 39° |
| 2026-04-30 20:48 | 54.34184 | 23.11730 | 38369 ft | 389 kts | 42° |
| 2026-04-30 20:48 | 54.38028 | 23.18273 | 38366 ft | 389 kts | 42° |
| 2026-04-30 20:49 | 54.41855 | 23.24773 | 38360 ft | 389 kts | 42° |
| 2026-04-30 20:50 | 54.47611 | 23.34620 | 38355 ft | 389 kts | 42° |
| 2026-04-30 20:50 | 54.51448 | 23.41191 | 38358 ft | 389 kts | 42° |
| 2026-04-30 20:51 | 54.55288 | 23.47773 | 38360 ft | 389 kts | 42° |
| 2026-04-30 20:51 | 54.61029 | 23.57688 | 38358 ft | 389 kts | 42° |
| 2026-04-30 20:52 | 54.64844 | 23.64312 | 38354 ft | 389 kts | 42° |
| 2026-04-30 20:53 | 54.70570 | 23.74276 | 38351 ft | 389 kts | 42° |
| 2026-04-30 20:53 | 54.74384 | 23.80914 | 38344 ft | 389 kts | 42° |
| 2026-04-30 20:54 | 54.80068 | 23.90855 | 38341 ft | 389 kts | 42° |
| 2026-04-30 20:55 | 54.85761 | 24.00883 | 38342 ft | 388 kts | 42° |
| 2026-04-30 20:55 | 54.89554 | 24.07578 | 38361 ft | 389 kts | 42° |
| 2026-04-30 20:56 | 54.95247 | 24.17654 | 38338 ft | 389 kts | 42° |
| 2026-04-30 20:56 | 54.99034 | 24.24379 | 37946 ft | 387 kts | 42° |
| 2026-04-30 20:57 | 55.00915 | 24.27725 | 37480 ft | 385 kts | 42° |
| 2026-04-30 20:57 | 55.02782 | 24.31050 | 37295 ft | 381 kts | 42° |
| 2026-04-30 20:57 | 55.04639 | 24.34358 | 37321 ft | 382 kts | 42° |
| 2026-04-30 20:58 | 55.10176 | 24.44266 | 37302 ft | 382 kts | 42° |
| 2026-04-30 20:58 | 55.13873 | 24.50923 | 37297 ft | 382 kts | 42° |
| 2026-04-30 20:59 | 55.19415 | 24.60926 | 37299 ft | 381 kts | 42° |
| 2026-04-30 21:00 | 55.26786 | 24.74294 | 37298 ft | 381 kts | 43° |
| 2026-04-30 21:01 | 55.32305 | 24.84343 | 37285 ft | 381 kts | 43° |
| 2026-04-30 21:02 | 55.37820 | 24.94423 | 37282 ft | 382 kts | 43° |
| 2026-04-30 21:02 | 55.41493 | 25.01170 | 37283 ft | 382 kts | 43° |
| 2026-04-30 21:03 | 55.45168 | 25.07937 | 37278 ft | 382 kts | 43° |
| 2026-04-30 21:03 | 55.48843 | 25.14704 | 37281 ft | 382 kts | 43° |
| 2026-04-30 21:04 | 55.52513 | 25.21491 | 37280 ft | 382 kts | 43° |
| 2026-04-30 21:04 | 55.57980 | 25.31655 | 37280 ft | 382 kts | 43° |
| 2026-04-30 21:05 | 55.61637 | 25.38477 | 37328 ft | 382 kts | 43° |
| 2026-04-30 21:05 | 55.65295 | 25.45317 | 37274 ft | 383 kts | 43° |
| 2026-04-30 21:06 | 55.68948 | 25.52179 | 37276 ft | 383 kts | 43° |
| 2026-04-30 21:06 | 55.72595 | 25.59059 | 37272 ft | 383 kts | 43° |
| 2026-04-30 21:07 | 55.76251 | 25.65933 | 37273 ft | 383 kts | 43° |
| 2026-04-30 21:07 | 55.79899 | 25.72826 | 37273 ft | 383 kts | 43° |
| 2026-04-30 21:08 | 55.83534 | 25.79761 | 37275 ft | 383 kts | 43° |
| 2026-04-30 21:08 | 55.87178 | 25.86686 | 37275 ft | 383 kts | 43° |
| 2026-04-30 21:09 | 55.90821 | 25.93625 | 37272 ft | 383 kts | 43° |
| 2026-04-30 21:09 | 55.94375 | 26.00725 | 37271 ft | 387 kts | 49° |
| 2026-04-30 21:10 | 55.97010 | 26.09202 | 37270 ft | 398 kts | 62° |
| 2026-04-30 21:10 | 55.98834 | 26.18571 | 37270 ft | 400 kts | 64° |
| 2026-04-30 21:11 | 56.00656 | 26.27960 | 37271 ft | 400 kts | 64° |
| 2026-04-30 21:11 | 56.02475 | 26.37356 | 37268 ft | 400 kts | 64° |
| 2026-04-30 21:12 | 56.04289 | 26.46756 | 37312 ft | 401 kts | 64° |
| 2026-04-30 21:12 | 56.06082 | 26.56140 | 37267 ft | 401 kts | 64° |
| 2026-04-30 21:13 | 56.07882 | 26.65601 | 37267 ft | 402 kts | 64° |
| 2026-04-30 21:13 | 56.09671 | 26.75076 | 37282 ft | 402 kts | 64° |
| 2026-04-30 21:14 | 56.11454 | 26.84551 | 37273 ft | 401 kts | 64° |
| 2026-04-30 21:14 | 56.13236 | 26.94052 | 37261 ft | 402 kts | 64° |
| 2026-04-30 21:15 | 56.15005 | 27.03558 | 37267 ft | 402 kts | 64° |
| 2026-04-30 21:15 | 56.16768 | 27.13070 | 37271 ft | 402 kts | 64° |
| 2026-04-30 21:16 | 56.18533 | 27.22592 | 37265 ft | 402 kts | 64° |
| 2026-04-30 21:16 | 56.20292 | 27.32147 | 37258 ft | 403 kts | 65° |
| 2026-04-30 21:17 | 56.22029 | 27.41659 | 37262 ft | 403 kts | 65° |
| 2026-04-30 21:17 | 56.23770 | 27.51248 | 37265 ft | 404 kts | 65° |
| 2026-04-30 21:18 | 56.25504 | 27.60858 | 37261 ft | 404 kts | 65° |
| 2026-04-30 21:18 | 56.27230 | 27.70470 | 37259 ft | 404 kts | 65° |
| 2026-04-30 21:19 | 56.28958 | 27.80092 | 37256 ft | 404 kts | 65° |
| 2026-04-30 21:19 | 56.30681 | 27.89727 | 37259 ft | 404 kts | 65° |
| 2026-04-30 21:20 | 56.32386 | 27.99382 | 37255 ft | 404 kts | 65° |
| 2026-04-30 21:20 | 56.34075 | 28.09008 | 37277 ft | 405 kts | 65° |
| 2026-04-30 21:21 | 56.35286 | 28.17217 | 37258 ft | 414 kts | 74° |
| 2026-04-30 21:21 | 56.35324 | 28.27790 | 37250 ft | 433 kts | 90° |
| 2026-04-30 21:22 | 56.34835 | 28.33152 | 37253 ft | 435 kts | 91° |
| 2026-04-30 21:23 | 56.32872 | 28.54673 | 37250 ft | 435 kts | 91° |
| 2026-04-30 21:23 | 56.31391 | 28.70790 | 37293 ft | 435 kts | 91° |
| 2026-04-30 21:24 | 56.30386 | 28.81575 | 37251 ft | 437 kts | 91° |
| 2026-04-30 21:24 | 56.29374 | 28.92304 | 37250 ft | 437 kts | 92° |
| 2026-04-30 21:25 | 56.27813 | 29.08504 | 37247 ft | 437 kts | 92° |
| 2026-04-30 21:26 | 56.26194 | 29.24678 | 37262 ft | 442 kts | 96° |
| 2026-04-30 21:26 | 56.25156 | 29.29960 | 37275 ft | 455 kts | 109° |
| 2026-04-30 21:27 | 56.20458 | 29.37923 | 37232 ft | 496 kts | 155° |
| 2026-04-30 21:27 | 56.17068 | 29.39016 | 37104 ft | 510 kts | 180° |
| 2026-04-30 21:27 | 56.13589 | 29.37733 | 36897 ft | 515 kts | 205° |
| 2026-04-30 21:28 | 56.08649 | 29.29105 | 36236 ft | 494 kts | 255° |
| 2026-04-30 21:28 | 56.07910 | 29.23287 | 36093 ft | 467 kts | 271° |
| 2026-04-30 21:28 | 56.05452 | 29.12309 | 36275 ft | 502 kts | 232° |
| 2026-04-30 21:29 | 56.02763 | 29.08294 | 36515 ft | 508 kts | 210° |
| 2026-04-30 21:29 | 55.92750 | 29.07413 | 37206 ft | 482 kts | 146° |
| 2026-04-30 21:30 | 55.88295 | 29.15426 | 37253 ft | 445 kts | 104° |
| 2026-04-30 21:31 | 55.88297 | 29.30796 | 37254 ft | 417 kts | 74° |
| 2026-04-30 21:31 | 55.89160 | 29.41030 | 37252 ft | 418 kts | 74° |
| 2026-04-30 21:32 | 55.90466 | 29.56428 | 37248 ft | 421 kts | 75° |
| 2026-04-30 21:32 | 55.91348 | 29.66762 | 37254 ft | 422 kts | 75° |
| 2026-04-30 21:33 | 55.92672 | 29.82295 | 37246 ft | 422 kts | 75° |
| 2026-04-30 21:34 | 55.93555 | 29.92661 | 37250 ft | 423 kts | 75° |
| 2026-04-30 21:34 | 55.94877 | 30.08167 | 37251 ft | 425 kts | 75° |
| 2026-04-30 21:35 | 55.95786 | 30.18714 | 37250 ft | 435 kts | 75° |
| 2026-04-30 21:35 | 55.96731 | 30.29498 | 37244 ft | 443 kts | 75° |
| 2026-04-30 21:36 | 55.97691 | 30.40398 | 37245 ft | 445 kts | 75° |
| 2026-04-30 21:37 | 55.99614 | 30.62234 | 37245 ft | 445 kts | 75° |
| 2026-04-30 21:37 | 56.00576 | 30.73159 | 37246 ft | 445 kts | 75° |
| 2026-04-30 21:38 | 56.01533 | 30.84027 | 37243 ft | 446 kts | 75° |
| 2026-04-30 21:38 | 56.02497 | 30.94981 | 37242 ft | 446 kts | 75° |
| 2026-04-30 21:39 | 56.03466 | 31.05968 | 37243 ft | 448 kts | 75° |
| 2026-04-30 21:39 | 56.04438 | 31.16980 | 37245 ft | 448 kts | 75° |
| 2026-04-30 21:40 | 56.04931 | 31.28127 | 37238 ft | 461 kts | 91° |
| 2026-04-30 21:40 | 56.04167 | 31.33770 | 37240 ft | 475 kts | 107° |
| 2026-04-30 21:40 | 56.02386 | 31.38843 | 37242 ft | 492 kts | 127° |
| 2026-04-30 21:41 | 55.99681 | 31.42718 | 37243 ft | 508 kts | 147° |
| 2026-04-30 21:41 | 55.96338 | 31.44905 | 37243 ft | 516 kts | 167° |
| 2026-04-30 21:41 | 55.89437 | 31.47427 | 37275 ft | 498 kts | 152° |
| 2026-04-30 21:42 | 55.86542 | 31.50494 | 37236 ft | 484 kts | 135° |
| 2026-04-30 21:42 | 55.84236 | 31.54825 | 37244 ft | 470 kts | 118° |
| 2026-04-30 21:42 | 55.82768 | 31.59906 | 37243 ft | 455 kts | 101° |
| 2026-04-30 21:42 | 55.82020 | 31.65254 | 37246 ft | 450 kts | 95° |
| 2026-04-30 21:43 | 55.81003 | 31.76175 | 37241 ft | 440 kts | 83° |
| 2026-04-30 21:43 | 55.81392 | 31.86930 | 37244 ft | 436 kts | 80° |
| 2026-04-30 21:44 | 55.81842 | 31.97685 | 37245 ft | 436 kts | 80° |
| 2026-04-30 21:44 | 55.82292 | 32.08541 | 37245 ft | 445 kts | 80° |
| 2026-04-30 21:45 | 55.82742 | 32.19646 | 37247 ft | 455 kts | 81° |
| 2026-04-30 21:45 | 55.83177 | 32.30929 | 37250 ft | 458 kts | 81° |
| 2026-04-30 21:46 | 55.83599 | 32.42258 | 37244 ft | 459 kts | 81° |
| 2026-04-30 21:46 | 55.84016 | 32.53605 | 37247 ft | 460 kts | 81° |
| 2026-04-30 21:47 | 55.84426 | 32.64956 | 37250 ft | 460 kts | 81° |
| 2026-04-30 21:47 | 55.84826 | 32.76319 | 37249 ft | 461 kts | 82° |
| 2026-04-30 21:48 | 55.85209 | 32.87729 | 37252 ft | 462 kts | 82° |
| 2026-04-30 21:48 | 55.85587 | 32.99161 | 37253 ft | 463 kts | 82° |
| 2026-04-30 21:49 | 55.85957 | 33.10519 | 37253 ft | 463 kts | 82° |
| 2026-04-30 21:49 | 55.86308 | 33.21975 | 37252 ft | 463 kts | 82° |
| 2026-04-30 21:50 | 55.86643 | 33.33424 | 37255 ft | 463 kts | 82° |
| 2026-04-30 21:50 | 55.86978 | 33.44874 | 37268 ft | 464 kts | 83° |
| 2026-04-30 21:51 | 55.87309 | 33.56392 | 37248 ft | 466 kts | 83° |
| 2026-04-30 21:51 | 55.87613 | 33.67917 | 37259 ft | 466 kts | 83° |
| 2026-04-30 21:52 | 55.87909 | 33.79450 | 37251 ft | 466 kts | 83° |
| 2026-04-30 21:52 | 55.88198 | 33.90923 | 37251 ft | 466 kts | 83° |
| 2026-04-30 21:53 | 55.88478 | 34.02460 | 37254 ft | 466 kts | 83° |
| 2026-04-30 21:53 | 55.88749 | 34.13999 | 37279 ft | 467 kts | 84° |
| 2026-04-30 21:54 | 55.89009 | 34.25579 | 37261 ft | 469 kts | 84° |
| 2026-04-30 21:54 | 55.89255 | 34.37202 | 37255 ft | 470 kts | 84° |
| 2026-04-30 21:55 | 55.89493 | 34.48834 | 37255 ft | 470 kts | 84° |
| 2026-04-30 21:55 | 55.89706 | 34.60483 | 37258 ft | 470 kts | 84° |
| 2026-04-30 21:56 | 55.89908 | 34.72142 | 37255 ft | 470 kts | 84° |
| 2026-04-30 21:56 | 55.90105 | 34.83792 | 37277 ft | 470 kts | 85° |
| 2026-04-30 21:57 | 55.90292 | 34.95441 | 36961 ft | 469 kts | 84° |
| 2026-04-30 21:57 | 55.90380 | 35.01229 | 36457 ft | 466 kts | 84° |
| 2026-04-30 21:57 | 55.90464 | 35.06995 | 35863 ft | 465 kts | 84° |
| 2026-04-30 21:58 | 55.90544 | 35.12748 | 35229 ft | 464 kts | 84° |
| 2026-04-30 21:58 | 55.90625 | 35.18498 | 34597 ft | 464 kts | 84° |
| 2026-04-30 21:58 | 55.90706 | 35.24244 | 33852 ft | 464 kts | 84° |
| 2026-04-30 21:58 | 55.90784 | 35.29985 | 33030 ft | 464 kts | 84° |
| 2026-04-30 21:59 | 55.90857 | 35.35658 | 32219 ft | 463 kts | 84° |
| 2026-04-30 21:59 | 55.90930 | 35.41401 | 31388 ft | 463 kts | 83° |
| 2026-04-30 21:59 | 55.91002 | 35.47135 | 30561 ft | 462 kts | 83° |
| 2026-04-30 22:00 | 55.91129 | 35.58486 | 29426 ft | 445 kts | 83° |
| 2026-04-30 22:00 | 55.91219 | 35.69154 | 29122 ft | 416 kts | 83° |
| 2026-04-30 22:00 | 55.91258 | 35.74248 | 28768 ft | 407 kts | 83° |
| 2026-04-30 22:01 | 55.91303 | 35.79267 | 28279 ft | 402 kts | 83° |
| 2026-04-30 22:01 | 55.91367 | 35.84220 | 27744 ft | 396 kts | 81° |
| 2026-04-30 22:01 | 55.91828 | 35.89032 | 26523 ft | 398 kts | 69° |
| 2026-04-30 22:01 | 55.92641 | 35.93859 | 24878 ft | 416 kts | 68° |
| 2026-04-30 22:02 | 55.93519 | 35.98902 | 23045 ft | 435 kts | 68° |
| 2026-04-30 22:02 | 55.94428 | 36.04076 | 21998 ft | 433 kts | 68° |
| 2026-04-30 22:02 | 55.95305 | 36.09124 | 21336 ft | 422 kts | 69° |
| 2026-04-30 22:02 | 55.96164 | 36.14118 | 20433 ft | 418 kts | 69° |
| 2026-04-30 22:03 | 55.96999 | 36.18998 | 19593 ft | 414 kts | 69° |
| 2026-04-30 22:03 | 55.97833 | 36.23890 | 18741 ft | 410 kts | 69° |
| 2026-04-30 22:03 | 55.98657 | 36.28741 | 17819 ft | 406 kts | 70° |
| 2026-04-30 22:03 | 55.99467 | 36.33527 | 16988 ft | 400 kts | 70° |
| 2026-04-30 22:04 | 56.00266 | 36.38250 | 16164 ft | 395 kts | 70° |
| 2026-04-30 22:04 | 56.01056 | 36.42940 | 15347 ft | 392 kts | 70° |
| 2026-04-30 22:04 | 56.02616 | 36.52226 | 13797 ft | 387 kts | 71° |
| 2026-04-30 22:05 | 56.03385 | 36.56805 | 13032 ft | 381 kts | 71° |
| 2026-04-30 22:05 | 56.04142 | 36.61311 | 12336 ft | 375 kts | 71° |
| 2026-04-30 22:05 | 56.04884 | 36.65741 | 11657 ft | 368 kts | 71° |
| 2026-04-30 22:05 | 56.05599 | 36.70033 | 11437 ft | 350 kts | 71° |
| 2026-04-30 22:06 | 56.06271 | 36.74096 | 11301 ft | 332 kts | 71° |
| 2026-04-30 22:06 | 56.07517 | 36.81647 | 11032 ft | 302 kts | 71° |
| 2026-04-30 22:06 | 56.08099 | 36.85185 | 10904 ft | 290 kts | 71° |
| 2026-04-30 22:07 | 56.08662 | 36.88609 | 10668 ft | 284 kts | 71° |
| 2026-04-30 22:07 | 56.09215 | 36.91978 | 10418 ft | 280 kts | 71° |
| 2026-04-30 22:07 | 56.09765 | 36.95315 | 10161 ft | 279 kts | 71° |
| 2026-04-30 22:07 | 56.10312 | 36.98645 | 9960 ft | 278 kts | 71° |
| 2026-04-30 22:08 | 56.10855 | 37.01960 | 9806 ft | 277 kts | 71° |
| 2026-04-30 22:08 | 56.11396 | 37.05273 | 9668 ft | 277 kts | 71° |
| 2026-04-30 22:08 | 56.11933 | 37.08583 | 9531 ft | 276 kts | 71° |
| 2026-04-30 22:08 | 56.12470 | 37.11889 | 9279 ft | 278 kts | 71° |
| 2026-04-30 22:09 | 56.13004 | 37.15183 | 8842 ft | 278 kts | 72° |
| 2026-04-30 22:09 | 56.13544 | 37.18503 | 8341 ft | 280 kts | 72° |
| 2026-04-30 22:09 | 56.14082 | 37.21825 | 8063 ft | 275 kts | 72° |
| 2026-04-30 22:09 | 56.14609 | 37.25103 | 7758 ft | 271 kts | 72° |
| 2026-04-30 22:10 | 56.15124 | 37.28319 | 7478 ft | 267 kts | 72° |
| 2026-04-30 22:10 | 56.15634 | 37.31512 | 7158 ft | 265 kts | 72° |
| 2026-04-30 22:10 | 56.16137 | 37.34686 | 6990 ft | 265 kts | 74° |
| 2026-04-30 22:10 | 56.16284 | 37.36902 | 6901 ft | 268 kts | 90° |
| 2026-04-30 22:11 | 56.15355 | 37.43357 | 6649 ft | 270 kts | 106° |
| 2026-04-30 22:11 | 56.14795 | 37.46563 | 6442 ft | 268 kts | 106° |
| 2026-04-30 22:11 | 56.14232 | 37.49775 | 5916 ft | 272 kts | 106° |
| 2026-04-30 22:12 | 56.13664 | 37.53018 | 5610 ft | 269 kts | 106° |
| 2026-04-30 22:12 | 56.13097 | 37.56183 | 5305 ft | 265 kts | 109° |
| 2026-04-30 22:12 | 56.12129 | 37.58962 | 4849 ft | 264 kts | 134° |
| 2026-04-30 22:12 | 56.10612 | 37.60783 | 4269 ft | 266 kts | 159° |
| 2026-04-30 22:13 | 56.08809 | 37.61469 | 3832 ft | 263 kts | 172° |
| 2026-04-30 22:13 | 56.07021 | 37.62027 | 3437 ft | 259 kts | 171° |
| 2026-04-30 22:13 | 56.05261 | 37.62615 | 3124 ft | 252 kts | 170° |
| 2026-04-30 22:13 | 56.03577 | 37.63190 | 2990 ft | 241 kts | 170° |
| 2026-04-30 22:14 | 56.01952 | 37.63614 | 2844 ft | 231 kts | 183° |
| 2026-04-30 22:14 | 56.00553 | 37.62595 | 2695 ft | 214 kts | 226° |
| 2026-04-30 22:14 | 55.99956 | 37.60321 | 2566 ft | 200 kts | 262° |
| 2026-04-30 22:14 | 55.99682 | 37.57976 | 2312 ft | 189 kts | 253° |
| 2026-04-30 22:15 | 55.99301 | 37.55824 | 2039 ft | 174 kts | 254° |
| 2026-04-30 22:15 | 55.98991 | 37.53892 | 1802 ft | 150 kts | 255° |
| 2026-04-30 22:15 | 55.98734 | 37.52192 | 1547 ft | 136 kts | 256° |
| 2026-04-30 22:15 | 55.98496 | 37.50602 | 1348 ft | 130 kts | 255° |
| 2026-04-30 22:16 | 55.98263 | 37.49046 | 1195 ft | 129 kts | 255° |
| 2026-04-30 22:16 | 55.98032 | 37.47503 | 1037 ft | 128 kts | 255° |
| 2026-04-30 22:17 | 55.97365 | 37.42992 | 641 ft | 105 kts | 257° |
| 2026-04-30 22:17 | 55.97223 | 37.42035 | 640 ft | 56 kts | 255° |
| 2026-04-30 22:17 | 55.97170 | 37.41344 | 642 ft | 25 kts | 332° |
| 2026-04-30 22:18 | 55.97335 | 37.41266 | 640 ft | 24 kts | 344° |
| 2026-04-30 22:18 | 55.97645 | 37.41216 | 642 ft | 15 kts | 17° |
| 2026-04-30 22:19 | 55.97719 | 37.41186 | 643 ft | 0 kts | 346° |